Time;durP1;ratioP1;P1;durP2;ratioP2;P2;SDS_P1;SDS_P2;PMS_P1;PMS_P2;Temp;Humidity;BMP_temperature;BMP_pressure;BME280_temperature;BME280_humidity;BME280_pressure;Samples;Min_cycle;Max_cycle;Signal;HPM_P1;HPM_P2
2023/01/21 00:01:46;;;;;;;29.45;14.35;;;;;;;-1.76;100.00;102458.41;5016446;28;20021;-83
2023/01/21 00:04:11;;;;;;;28.45;13.40;;;;;;;-1.77;100.00;102457.50;5015821;28;20032;-83
2023/01/21 00:06:36;;;;;;;28.25;13.40;;;;;;;-1.78;100.00;102468.47;5015329;28;20120;-83
2023/01/21 00:09:03;;;;;;;34.15;17.67;;;;;;;-1.83;100.00;102477.50;5015862;28;20109;-83
2023/01/21 00:11:28;;;;;;;37.72;19.33;;;;;;;-1.86;100.00;102477.31;5015107;28;20048;-82
2023/01/21 00:13:53;;;;;;;37.00;19.60;;;;;;;-1.87;100.00;102483.19;5015133;28;20467;-83
2023/01/21 00:16:19;;;;;;;34.13;17.65;;;;;;;-1.87;100.00;102486.63;5015324;28;20083;-83
2023/01/21 00:18:46;;;;;;;36.83;19.58;;;;;;;-1.91;100.00;102491.41;5015340;28;20022;-82
2023/01/21 00:21:12;;;;;;;33.85;17.65;;;;;;;-1.91;100.00;102488.84;5015955;28;20434;-82
2023/01/21 00:23:37;;;;;;;35.70;18.38;;;;;;;-2.00;100.00;102489.19;5013378;28;20064;-84
2023/01/21 00:26:05;;;;;;;42.17;22.33;;;;;;;-2.05;100.00;102496.53;4995420;28;20033;-82
2023/01/21 00:28:31;;;;;;;;;;;;;;;-2.04;100.00;102497.41;4996352;28;20379;-82
2023/01/21 00:31:02;;;;;;;39.42;19.73;;;;;;;-2.05;100.00;102501.63;4996280;28;19913;-83
2023/01/21 00:33:28;;;;;;;35.00;17.45;;;;;;;-2.05;100.00;102508.34;4995486;28;20038;-82
2023/01/21 00:36:02;;;;;;;36.40;18.58;;;;;;;-2.05;100.00;102503.25;4996074;28;20093;-83
2023/01/21 00:38:28;;;;;;;37.75;19.23;;;;;;;-2.09;100.00;102503.88;5000637;28;20029;-83
2023/01/21 00:41:03;;;;;;;34.78;18.00;;;;;;;-2.09;100.00;102506.41;5015331;28;20037;-83
2023/01/21 00:43:28;;;;;;;37.00;17.88;;;;;;;-2.09;100.00;102512.38;5015663;28;20092;-83
2023/01/21 00:45:54;;;;;;;35.35;18.50;;;;;;;-2.09;100.00;102512.38;5015535;28;20029;-83
2023/01/21 00:48:19;;;;;;;35.30;18.13;;;;;;;-2.11;100.00;102507.97;5014569;28;20041;-83
2023/01/21 00:50:44;;;;;;;37.58;18.95;;;;;;;-2.11;100.00;102518.16;5015183;28;20033;-83
2023/01/21 00:53:10;;;;;;;35.80;18.25;;;;;;;-2.14;100.00;102516.31;5015335;28;20030;-83
2023/01/21 00:55:35;;;;;;;36.08;18.20;;;;;;;-2.16;100.00;102528.03;5014655;28;20053;-83
2023/01/21 00:58:00;;;;;;;35.45;17.63;;;;;;;-2.16;100.00;102535.66;5015539;28;20040;-83
2023/01/21 01:00:25;;;;;;;36.60;18.98;;;;;;;-2.18;100.00;102535.56;5015212;28;20049;-83
2023/01/21 01:02:51;;;;;;;34.28;17.40;;;;;;;-2.16;100.00;102543.31;5014399;28;20026;-83
2023/01/21 01:05:18;;;;;;;32.10;15.77;;;;;;;-2.16;100.00;102558.56;5014926;28;20030;-83
2023/01/21 01:07:44;;;;;;;35.35;18.65;;;;;;;-2.18;100.00;102553.38;5000286;28;20023;-82
2023/01/21 01:10:10;;;;;;;38.45;19.58;;;;;;;-2.21;100.00;102555.72;4994520;28;20034;-83
2023/01/21 01:12:35;;;;;;;38.80;20.30;;;;;;;-2.25;100.00;102556.31;4995666;28;20022;-83
2023/01/21 01:15:00;;;;;;;41.90;21.85;;;;;;;-2.23;100.00;102566.56;4994666;28;20153;-82
2023/01/21 01:17:26;;;;;;;37.30;19.35;;;;;;;-2.24;100.00;102569.88;4995249;28;20038;-83
2023/01/21 01:19:51;;;;;;;39.03;20.55;;;;;;;-2.25;100.00;102574.09;4995445;28;20026;-83
2023/01/21 01:22:16;;;;;;;35.20;18.27;;;;;;;-2.24;100.00;102586.03;4994482;28;20029;-84
2023/01/21 01:24:42;;;;;;;40.15;20.88;;;;;;;-2.28;100.00;102585.75;5004329;28;20029;-82
2023/01/21 01:27:07;;;;;;;39.75;20.77;;;;;;;-2.23;100.00;102597.09;5014564;28;20438;-82
2023/01/21 01:29:32;;;;;;;35.35;18.42;;;;;;;-2.23;100.00;102600.53;5014215;28;20025;-83
2023/01/21 01:31:57;;;;;;;40.28;21.50;;;;;;;-2.26;100.00;102604.53;5014224;28;20061;-83
2023/01/21 01:34:23;;;;;;;39.42;20.60;;;;;;;-2.25;100.00;102603.75;5012727;28;20411;-82
2023/01/21 01:36:48;;;;;;;39.65;21.08;;;;;;;-2.25;100.00;102611.41;5013957;28;20033;-83
2023/01/21 01:39:14;;;;;;;38.63;20.08;;;;;;;-2.25;100.00;102619.03;5013503;28;20025;-83
2023/01/21 01:41:39;;;;;;;33.67;17.33;;;;;;;-2.26;100.00;102619.81;5014500;28;20018;-83
2023/01/21 01:44:43;;;;;;;37.92;20.25;;;;;;;-2.27;100.00;102624.00;5006514;28;20434;-82
2023/01/21 01:47:09;;;;;;;36.45;19.73;;;;;;;-2.26;100.00;102629.97;4994044;28;20034;-83
2023/01/21 01:49:34;;;;;;;32.17;16.50;;;;;;;-2.26;100.00;102629.97;4994673;28;20368;-83
2023/01/21 01:52:03;;;;;;;37.90;19.95;;;;;;;-2.28;100.00;102629.00;4993969;28;20031;-83
2023/01/21 01:54:35;;;;;;;36.72;19.10;;;;;;;-2.29;100.00;102633.16;4994725;28;20019;-82
2023/01/21 01:57:04;;;;;;;44.70;23.25;;;;;;;-2.33;100.00;102631.22;4994172;28;20053;-81
2023/01/21 01:59:30;;;;;;;49.50;27.02;;;;;;;-2.35;100.00;102635.31;4998864;28;20025;-83
2023/01/21 02:01:59;;;;;;;44.08;24.55;;;;;;;-2.36;100.00;102636.97;5012737;28;20026;-82
2023/01/21 02:04:30;;;;;;;42.35;22.67;;;;;;;-2.35;100.00;102643.81;4993528;28;20463;-82
2023/01/21 02:06:56;;;;;;;44.90;24.65;;;;;;;-2.38;100.00;102642.75;4994214;28;20022;-83
2023/01/21 02:09:26;;;;;;;44.13;23.48;;;;;;;-2.38;100.00;102651.28;4993717;28;20032;-83
2023/01/21 02:11:52;;;;;;;41.38;21.52;;;;;;;-2.36;100.00;102643.72;4993809;28;20434;-83
2023/01/21 02:14:18;;;;;;;37.63;19.30;;;;;;;-2.37;100.00;102650.50;5002156;28;20038;-82
2023/01/21 02:17:00;;;;;;;34.63;17.83;;;;;;;-2.37;100.00;102650.50;5013642;28;20056;-83
2023/01/21 02:19:31;;;;;;;34.03;17.23;;;;;;;-2.37;100.00;102664.84;5013113;28;20042;-82
2023/01/21 02:22:17;;;;;;;34.75;17.23;;;;;;;-2.39;100.00;102662.22;5013949;28;20038;-83
2023/01/21 02:24:55;;;;;;;32.30;17.30;;;;;;;-2.41;100.00;102679.03;5013681;28;20030;-82
2023/01/21 02:27:38;;;;;;;36.92;19.58;;;;;;;-2.39;100.00;102674.94;5012915;28;20030;-82
2023/01/21 02:30:32;;;;;;;36.15;18.98;;;;;;;-2.42;100.00;102677.25;5012536;28;20108;-82
2023/01/21 02:33:12;;;;;;;34.60;17.75;;;;;;;-2.43;100.00;102683.13;4992913;28;20050;-81
2023/01/21 02:36:16;;;;;;;36.20;19.25;;;;;;;-2.45;100.00;102674.50;4993673;28;20475;-82
2023/01/21 02:39:20;;;;;;;36.92;19.70;;;;;;;-2.46;100.00;102687.13;4993867;28;20471;-83
2023/01/21 02:41:59;;;;;;;35.83;19.17;;;;;;;-2.49;100.00;102686.13;4960754;28;20042;-82
2023/01/21 02:44:34;;;;;;;40.58;21.00;;;;;;;-2.51;100.00;102689.34;4993613;28;20439;-82
2023/01/21 02:47:06;;;;;;;36.97;19.30;;;;;;;-2.50;100.00;102691.13;4993143;28;20027;-82
2023/01/21 02:49:38;;;;;;;35.97;18.50;;;;;;;-2.53;100.00;102689.22;4994707;28;20030;-82
2023/01/21 02:52:04;;;;;;;35.15;18.17;;;;;;;-2.53;100.00;102694.31;4992858;28;20044;-82
2023/01/21 02:54:38;;;;;;;39.55;22.45;;;;;;;-2.56;100.00;102693.22;4992918;28;20026;-82
2023/01/21 02:57:10;;;;;;;41.38;21.63;;;;;;;-2.58;100.00;102708.38;4994223;28;20038;-83
2023/01/21 02:59:38;;;;;;;37.72;19.77;;;;;;;-2.56;100.00;102711.03;4993666;28;20054;-82
2023/01/21 03:02:48;;;;;;;38.53;20.65;;;;;;;-2.59;100.00;102713.38;4992182;28;20027;-82
2023/01/21 03:05:16;;;;;;;41.45;21.58;;;;;;;-2.62;100.00;102710.63;4989019;28;20058;-82
2023/01/21 03:08:05;;;;;;;50.50;27.05;;;;;;;-2.67;100.00;102718.81;4992877;28;20729;-82
2023/01/21 03:10:47;;;;;;;48.33;26.98;;;;;;;-2.70;100.00;102716.03;4993228;28;20130;-82
2023/01/21 03:16:55;;;;;;;49.17;26.60;;;;;;;-2.70;100.00;102720.25;4992976;28;20027;-82
2023/01/21 03:18:58;;;;;;;39.40;20.35;;;;;;;-2.71;100.00;102727.00;4993622;28;20177;-82
2023/01/21 03:21:26;;;;;;;40.20;21.17;;;;;;;-2.72;100.00;102729.44;4992904;28;20030;-81
2023/01/21 03:23:54;;;;;;;43.28;23.75;;;;;;;-2.74;100.00;102731.88;4993260;28;20026;-81
2023/01/21 03:26:26;;;;;;;40.08;20.45;;;;;;;-2.75;100.00;102737.72;4992858;28;20582;-82
2023/01/21 03:28:56;;;;;;;44.58;22.83;;;;;;;-2.78;100.00;102727.34;4992210;28;20482;-82
2023/01/21 03:31:29;;;;;;;44.40;22.88;;;;;;;-2.78;100.00;102734.09;4992728;28;20057;-82
2023/01/21 03:33:59;;;;;;;42.00;21.52;;;;;;;-2.77;100.00;102731.66;4993335;28;20018;-82
2023/01/21 03:36:40;;;;;;;46.20;23.92;;;;;;;-2.78;100.00;102734.97;4992352;28;20050;-82
2023/01/21 03:39:28;;;;;;;45.53;23.90;;;;;;;-2.79;100.00;102733.19;4992879;28;20041;-82
2023/01/21 03:41:53;;;;;;;43.60;23.02;;;;;;;-2.77;100.00;102738.41;4993134;28;20023;-81
2023/01/21 03:44:19;;;;;;;46.88;23.23;;;;;;;-2.80;100.00;102745.03;4992219;28;20026;-82
2023/01/21 03:47:10;;;;;;;39.60;20.52;;;;;;;-2.80;100.00;102747.56;4992682;28;20096;-82
2023/01/21 03:49:46;;;;;;;39.80;20.38;;;;;;;-2.79;100.00;102758.59;4992626;28;20410;-82
2023/01/21 03:52:12;;;;;;;;;;;;;;;-2.79;100.00;102756.06;4995530;28;20643;-81
2023/01/21 03:54:39;;;;;;;39.90;20.87;;;;;;;-2.81;100.00;102752.53;5012207;28;20000;-82
2023/01/21 03:57:04;;;;;;;;;;;;;;;-2.81;100.00;102761.06;5011534;28;20022;-82
2023/01/21 03:59:33;;;;;;;39.57;19.67;;;;;;;-2.82;100.00;102760.97;5012931;28;19913;-82
2023/01/21 04:01:58;;;;;;;37.40;18.88;;;;;;;-2.81;100.00;102763.59;5012635;28;20022;-82
2023/01/21 04:04:23;;;;;;;44.03;21.75;;;;;;;-2.81;100.00;102762.69;5001275;28;20471;-82
2023/01/21 04:06:49;;;;;;;45.22;22.75;;;;;;;-2.85;100.00;102765.81;4992627;28;20026;-82
2023/01/21 04:09:14;;;;;;;39.03;20.88;;;;;;;-2.87;100.00;102767.34;4992611;28;20026;-82
2023/01/21 04:11:39;;;;;;;40.70;20.38;;;;;;;-2.89;100.00;102763.81;4992405;28;20022;-82
2023/01/21 04:14:05;;;;;;;37.05;18.60;;;;;;;-2.90;100.00;102772.22;4992607;28;20044;-81
2023/01/21 04:16:30;;;;;;;42.08;21.70;;;;;;;-2.97;100.00;102768.34;4992556;28;20379;-81
2023/01/21 04:18:55;;;;;;;41.13;20.30;;;;;;;-2.93;100.00;102774.56;4991818;28;20360;-82
2023/01/21 04:21:20;;;;;;;39.55;19.98;;;;;;;-2.96;100.00;102776.09;4992869;28;20070;-81
2023/01/21 04:23:46;;;;;;;37.42;19.40;;;;;;;-2.95;100.00;102776.97;4992385;28;20038;-81
2023/01/21 04:26:11;;;;;;;41.17;20.42;;;;;;;-2.96;100.00;102778.66;4995434;28;20060;-81
2023/01/21 04:28:36;;;;;;;40.33;20.58;;;;;;;-3.00;100.00;102783.41;4996311;28;20037;-82
2023/01/21 04:31:02;;;;;;;41.00;20.25;;;;;;;-2.98;100.00;102786.91;4996108;28;20030;-81
2023/01/21 04:33:28;;;;;;;39.33;19.15;;;;;;;-2.99;100.00;102785.16;4995138;28;20109;-81
2023/01/21 04:35:58;;;;;;;41.10;20.70;;;;;;;-3.03;100.00;102785.72;4996251;28;20436;-81
2023/01/21 04:38:23;;;;;;;43.30;21.45;;;;;;;-3.04;100.00;102782.28;4996177;28;20114;-81
2023/01/21 04:40:49;;;;;;;41.42;20.40;;;;;;;-3.03;100.00;102781.50;4995304;28;20117;-81
2023/01/21 04:43:14;;;;;;;41.33;20.33;;;;;;;-3.04;100.00;102787.34;4995903;28;20109;-81
2023/01/21 04:45:39;;;;;;;42.05;19.85;;;;;;;-3.05;100.00;102785.63;4996082;28;20414;-81
2023/01/21 04:48:05;;;;;;;38.60;19.30;;;;;;;-3.05;100.00;102787.25;4994645;28;20034;-81
2023/01/21 04:50:30;;;;;;;35.13;17.42;;;;;;;-3.04;100.00;102786.47;4995828;28;20023;-81
2023/01/21 04:52:55;;;;;;;32.40;15.32;;;;;;;-3.04;100.00;102792.44;4994643;28;20537;-81
2023/01/21 04:55:30;;;;;;;36.67;17.30;;;;;;;-3.05;100.00;102797.41;4995282;28;20018;-81
2023/01/21 04:57:55;;;;;;;33.15;15.57;;;;;;;-3.04;100.00;102807.66;4995846;28;20030;-81
2023/01/21 05:00:21;;;;;;;31.30;14.48;;;;;;;-3.03;100.00;102804.34;4994784;28;20383;-81
2023/01/21 05:02:46;;;;;;;32.55;14.23;;;;;;;-3.03;100.00;102814.53;4995369;28;20069;-81
2023/01/21 05:05:11;;;;;;;29.65;13.93;;;;;;;-3.01;100.00;102812.97;4995280;28;20046;-81
2023/01/21 05:07:36;;;;;;;33.42;14.68;;;;;;;-3.04;100.00;102815.28;4995235;28;20463;-81
2023/01/21 05:10:02;;;;;;;31.05;13.90;;;;;;;-3.03;100.00;102814.53;4995432;28;20034;-81
2023/01/21 05:12:27;;;;;;;28.25;12.07;;;;;;;-3.03;100.00;102819.59;4995222;28;20062;-81
2023/01/21 05:14:54;;;;;;;32.53;15.23;;;;;;;-3.04;100.00;102820.38;4994877;28;20021;-81
2023/01/21 05:17:20;;;;;;;31.35;14.32;;;;;;;-3.03;100.00;102828.91;5006522;28;20113;-81
2023/01/21 05:19:45;;;;;;;34.70;16.40;;;;;;;-3.07;100.00;102827.81;5014538;28;20157;-81
2023/01/21 05:22:11;;;;;;;38.70;18.02;;;;;;;-3.10;100.00;102820.81;5013948;28;20033;-80
2023/01/21 05:24:36;;;;;;;34.90;16.45;;;;;;;-3.09;100.00;102821.72;5014861;28;20048;-81
2023/01/21 05:27:01;;;;;;;31.80;14.60;;;;;;;-3.07;100.00;102829.44;5015009;28;20026;-81
2023/01/21 05:29:27;;;;;;;30.23;13.73;;;;;;;-3.07;100.00;102831.97;5013551;28;20137;-81
2023/01/21 05:31:52;;;;;;;33.33;15.25;;;;;;;-3.12;100.00;102830.00;5014509;28;20573;-81
2023/01/21 05:34:17;;;;;;;36.17;16.85;;;;;;;-3.12;100.00;102831.66;5014186;28;20026;-81
2023/01/21 05:36:42;;;;;;;37.85;17.75;;;;;;;-3.15;100.00;102837.41;5012801;28;20044;-80
2023/01/21 05:39:08;;;;;;;35.50;17.48;;;;;;;-3.14;100.00;102843.34;5014489;28;20390;-80
2023/01/21 05:41:33;;;;;;;33.85;16.02;;;;;;;-3.15;100.00;102846.66;5014494;28;20489;-81
2023/01/21 05:43:58;;;;;;;30.70;13.85;;;;;;;-3.13;100.00;102852.72;5012509;28;20058;-80
2023/01/21 05:46:24;;;;;;;32.38;14.75;;;;;;;-3.11;100.00;102851.19;4993911;28;20113;-80
2023/01/21 05:48:49;;;;;;;31.90;14.80;;;;;;;-3.15;100.00;102854.28;4994678;28;20022;-81
2023/01/21 05:51:14;;;;;;;32.30;14.43;;;;;;;-3.16;100.00;102855.94;4993527;28;20022;-80
2023/01/21 05:53:40;;;;;;;28.67;12.55;;;;;;;-3.18;100.00;102854.94;4994429;28;20023;-81
2023/01/21 05:56:05;;;;;;;31.27;14.93;;;;;;;-3.23;100.00;102847.75;4994521;28;20030;-81
2023/01/21 05:58:30;;;;;;;35.72;17.20;;;;;;;-3.24;100.00;102849.44;4993778;28;20501;-81
2023/01/21 06:00:57;;;;;;;34.45;15.50;;;;;;;-3.23;100.00;102851.19;4994424;28;20492;-81
2023/01/21 06:03:23;;;;;;;34.70;16.45;;;;;;;-3.25;100.00;102860.34;4993323;28;20035;-81
2023/01/21 06:05:49;;;;;;;31.60;13.90;;;;;;;-3.24;100.00;102864.66;4994204;28;20026;-80
2023/01/21 06:08:14;;;;;;;35.67;16.92;;;;;;;-3.27;100.00;102867.88;4994657;28;20379;-80
2023/01/21 06:10:40;;;;;;;35.15;15.57;;;;;;;-3.26;100.00;102879.75;4993604;28;20033;-80
2023/01/21 06:13:05;;;;;;;32.80;14.73;;;;;;;-3.26;100.00;102869.59;5003505;28;20292;-80
2023/01/21 06:15:32;;;;;;;33.65;15.10;;;;;;;-3.29;100.00;102874.47;5013897;28;20033;-80
2023/01/21 06:18:00;;;;;;;33.10;14.50;;;;;;;-3.26;100.00;102879.75;5013442;28;20033;-81
2023/01/21 06:20:29;;;;;;;34.58;16.60;;;;;;;-3.29;100.00;102881.19;5013340;28;20561;-80
2023/01/21 06:22:55;;;;;;;32.45;14.70;;;;;;;-3.26;100.00;102876.34;5014101;28;20029;-80
2023/01/21 06:25:20;;;;;;;30.17;13.15;;;;;;;-3.25;100.00;102878.13;5012536;28;20025;-80
2023/01/21 06:27:45;;;;;;;29.95;13.30;;;;;;;-3.25;100.00;102880.66;5013334;28;20038;-80
2023/01/21 06:30:10;;;;;;;27.48;12.02;;;;;;;-3.25;100.00;102885.75;5013137;28;20030;-80
2023/01/21 06:32:36;;;;;;;35.65;16.35;;;;;;;-3.28;100.00;102895.66;5012767;28;20406;-82
2023/01/21 06:35:03;;;;;;;34.67;16.10;;;;;;;-3.27;100.00;102890.72;5013352;28;20469;-80
2023/01/21 06:37:28;;;;;;;;;;;;;;;-3.26;100.00;102895.00;5013719;28;20076;-81
2023/01/21 06:39:54;;;;;;;29.33;12.60;;;;;;;-3.26;100.00;102900.09;5012619;28;19918;-79
2023/01/21 06:42:19;;;;;;;28.73;12.50;;;;;;;-3.26;100.00;102905.16;4993477;28;20077;-80
2023/01/21 06:44:45;;;;;;;26.83;11.88;;;;;;;-3.24;100.00;102906.94;4993849;28;20145;-80
2023/01/21 06:47:10;;;;;;;25.92;11.07;;;;;;;-3.23;100.00;102909.59;4992227;28;20031;-80
2023/01/21 06:49:36;;;;;;;24.67;10.25;;;;;;;-3.21;100.00;102918.22;4993666;28;20117;-80
2023/01/21 06:52:01;;;;;;;24.65;9.98;;;;;;;-3.22;100.00;102918.09;4993555;28;20054;-80
2023/01/21 06:54:27;;;;;;;23.90;9.35;;;;;;;-3.20;100.00;102922.50;4992425;28;20403;-80
2023/01/21 06:56:52;;;;;;;21.88;8.55;;;;;;;-3.21;100.00;102927.50;4993867;28;20037;-80
2023/01/21 06:59:17;;;;;;;26.63;10.73;;;;;;;-3.26;100.00;102925.47;4993316;28;20438;-80
2023/01/21 07:01:43;;;;;;;27.05;11.50;;;;;;;-3.23;100.00;102939.19;4992664;28;20030;-80
2023/01/21 07:04:08;;;;;;;25.35;10.50;;;;;;;-3.26;100.00;102944.94;4992932;28;20030;-80
2023/01/21 07:06:34;;;;;;;26.27;11.07;;;;;;;-3.27;100.00;102953.31;4992451;28;20459;-80
2023/01/21 07:08:59;;;;;;;24.67;10.23;;;;;;;-3.29;100.00;102960.81;5000771;28;20057;-80
2023/01/21 07:11:24;;;;;;;25.02;10.48;;;;;;;-3.30;100.00;102946.34;5010155;28;20037;-80
2023/01/21 07:13:50;;;;;;;26.25;10.40;;;;;;;-3.33;100.00;102955.41;5005721;28;20040;-80
2023/01/21 07:16:15;;;;;;;27.42;11.38;;;;;;;-3.33;100.00;102956.28;5012242;28;20037;-80
2023/01/21 07:18:40;;;;;;;30.70;13.48;;;;;;;-3.36;100.00;102958.56;5012554;28;20122;-80
2023/01/21 07:21:05;;;;;;;40.38;19.23;;;;;;;-3.41;100.00;102958.22;5011977;28;20030;-79
2023/01/21 07:23:31;;;;;;;37.55;17.60;;;;;;;-3.42;100.00;102961.53;5013072;28;20022;-80
2023/01/21 07:25:56;;;;;;;39.97;18.80;;;;;;;-3.45;100.00;102968.03;5012721;28;20180;-80
2023/01/21 07:28:22;;;;;;;40.30;18.15;;;;;;;-3.46;100.00;102978.97;5011923;28;20034;-80
2023/01/21 07:30:47;;;;;;;37.33;17.40;;;;;;;-3.47;100.00;102980.63;5012744;28;20026;-80
2023/01/21 07:33:12;;;;;;;37.05;17.27;;;;;;;-3.48;100.00;102975.41;5012472;28;20072;-80
2023/01/21 07:35:38;;;;;;;35.55;16.95;;;;;;;-3.49;100.00;102976.22;5012124;28;20136;-80
2023/01/21 07:38:03;;;;;;;42.80;19.63;;;;;;;-3.56;100.00;102982.47;5012424;28;20034;-79
2023/01/21 07:40:28;;;;;;;44.60;21.63;;;;;;;-3.55;100.00;102993.47;5005659;28;20041;-80
2023/01/21 07:42:55;;;;;;;40.60;19.10;;;;;;;-3.53;100.00;103002.09;4992223;28;20533;-80
2023/01/21 07:45:21;;;;;;;38.45;17.50;;;;;;;-3.50;100.00;102999.81;4993082;28;20038;-79
2023/01/21 07:47:46;;;;;;;37.00;16.85;;;;;;;-3.51;100.00;102998.03;4992840;28;20034;-80
2023/01/21 07:50:12;;;;;;;35.95;15.90;;;;;;;-3.50;100.00;103007.44;4992040;28;20031;-80
2023/01/21 07:52:38;;;;;;;32.22;14.38;;;;;;;-3.49;100.00;103012.63;4993284;28;20117;-80
2023/01/21 07:55:04;;;;;;;32.85;15.38;;;;;;;-3.49;100.00;103014.28;4993155;28;20113;-79
2023/01/21 07:57:30;;;;;;;39.15;17.92;;;;;;;-3.47;100.00;103016.16;4992391;28;20379;-80
2023/01/21 07:59:55;;;;;;;40.40;19.48;;;;;;;-3.48;100.00;103023.66;4994590;28;20018;-80
2023/01/21 08:02:21;;;;;;;42.72;19.70;;;;;;;-3.49;100.00;103032.06;4996496;28;20076;-80
2023/01/21 08:04:46;;;;;;;42.88;20.52;;;;;;;-3.47;100.00;103030.50;4995961;28;20471;-80
2023/01/21 08:07:11;;;;;;;41.85;20.10;;;;;;;-3.43;100.00;103047.75;4996277;28;20356;-80
2023/01/21 08:09:37;;;;;;;45.33;21.65;;;;;;;-3.43;100.00;103046.09;4997722;28;20041;-80
2023/01/21 08:12:04;;;;;;;47.88;22.55;;;;;;;-3.42;100.00;103047.84;4995811;28;20106;-80
2023/01/21 08:14:29;;;;;;;;;;;;;;;-3.38;100.00;103055.72;4996928;28;20030;-80
2023/01/21 08:16:55;;;;;;;51.93;23.53;;;;;;;-3.36;100.00;103057.59;4995346;28;20061;-80
2023/01/21 08:19:20;;;;;;;46.72;20.88;;;;;;;-3.34;100.00;103067.91;4995749;28;20033;-80
2023/01/21 08:21:45;;;;;;;51.92;24.58;;;;;;;-3.29;100.00;103064.03;4996602;28;20105;-80
2023/01/21 08:24:11;;;;;;;52.28;24.50;;;;;;;-3.28;100.00;103076.88;4995228;28;20026;-81
2023/01/21 08:26:37;;;;;;;47.90;22.50;;;;;;;-3.22;100.00;103080.66;4996310;28;20038;-79
2023/01/21 08:29:03;;;;;;;52.90;24.10;;;;;;;-3.23;100.00;103072.16;4996218;28;20019;-81
2023/01/21 08:31:28;;;;;;;50.65;23.55;;;;;;;-3.20;100.00;103080.00;4995287;28;20050;-81
2023/01/21 08:33:54;;;;;;;64.47;28.70;;;;;;;-3.22;100.00;103088.28;4996484;28;20026;-81
2023/01/21 08:36:19;;;;;;;59.00;27.45;;;;;;;-3.21;100.00;103093.50;4997233;28;20037;-81
2023/01/21 08:38:45;;;;;;;59.60;26.75;;;;;;;-3.17;100.00;103094.59;4995534;28;20352;-82
2023/01/21 08:41:10;;;;;;;59.88;27.00;;;;;;;-3.13;100.00;103100.03;4995550;28;20022;-82
2023/01/21 08:43:36;;;;;;;56.10;26.38;;;;;;;-3.09;100.00;103103.69;4998218;28;20513;-82
2023/01/21 08:46:01;;;;;;;52.35;23.27;;;;;;;-3.03;100.00;103106.69;5014835;28;20026;-82
2023/01/21 08:48:28;;;;;;;54.55;24.52;;;;;;;-3.01;100.00;103109.38;5015195;28;20026;-81
2023/01/21 08:50:56;;;;;;;62.97;28.88;;;;;;;-3.04;100.00;103114.22;5015208;28;20029;-81
2023/01/21 08:53:22;;;;;;;61.33;29.33;;;;;;;-3.04;100.00;103112.53;5014571;28;20037;-81
2023/01/21 08:55:47;;;;;;;59.10;26.60;;;;;;;-3.01;100.00;103110.25;5015091;28;20111;-81
2023/01/21 08:58:12;;;;;;;59.30;26.70;;;;;;;-2.97;100.00;103111.34;5015342;28;20030;-81
2023/01/21 09:00:38;;;;;;;68.20;29.00;;;;;;;-3.00;100.00;103122.19;5014088;28;20029;-81
2023/01/21 09:03:03;;;;;;;68.05;29.23;;;;;;;-3.07;100.00;103131.75;5014975;28;20026;-80
2023/01/21 09:05:28;;;;;;;62.67;27.05;;;;;;;-3.05;100.00;103127.69;5001397;28;20037;-81
2023/01/21 09:07:54;;;;;;;67.35;27.92;;;;;;;-3.05;100.00;103128.59;4994890;28;20034;-81
2023/01/21 09:13:07;;;;;;;53.95;22.80;;;;;;;-2.92;100.00;103140.56;4995744;28;20493;-81
2023/01/21 09:15:42;;;;;;;69.45;28.08;;;;;;;-2.95;100.00;103140.31;4995423;28;20483;-81
2023/01/21 09:18:08;;;;;;;65.72;27.98;;;;;;;-2.98;100.00;103135.00;4995318;28;20022;-80
2023/01/21 09:20:33;;;;;;;65.30;28.10;;;;;;;-2.97;100.00;103131.69;4994295;28;20053;-81
2023/01/21 09:22:58;;;;;;;64.25;26.27;;;;;;;-2.91;100.00;103137.25;4995408;28;20092;-81
2023/01/21 09:25:24;;;;;;;66.20;29.30;;;;;;;-2.91;100.00;103132.19;4994518;28;20031;-81
2023/01/21 09:27:49;;;;;;;69.88;28.42;;;;;;;-2.89;100.00;103143.34;4994265;28;20499;-81
2023/01/21 09:30:15;;;;;;;64.80;27.63;;;;;;;-2.88;100.00;103139.16;4998687;28;20030;-80
2023/01/21 09:32:40;;;;;;;59.10;25.70;;;;;;;-2.82;100.00;103137.09;4994685;28;20050;-81
2023/01/21 09:35:07;;;;;;;59.35;25.35;;;;;;;-2.81;100.00;103146.47;4993949;28;20096;-82
2023/01/21 09:37:33;;;;;;;59.97;25.23;;;;;;;-2.80;100.00;103143.16;4994751;28;20035;-81
2023/01/21 09:39:59;;;;;;;67.93;27.15;;;;;;;-2.84;100.00;103154.75;4995190;28;20033;-81
2023/01/21 09:42:27;;;;;;;62.75;26.90;;;;;;;-2.84;100.00;103154.75;4993962;28;20018;-81
2023/01/21 09:44:55;;;;;;;68.50;28.45;;;;;;;-2.84;100.00;103170.00;4995086;28;20031;-81
2023/01/21 09:47:28;;;;;;;70.43;27.27;;;;;;;-2.81;100.00;103171.88;4994628;28;20030;-81
2023/01/21 09:49:59;;;;;;;64.63;26.77;;;;;;;-2.78;100.00;103178.88;4994693;28;20027;-81
2023/01/21 09:52:36;;;;;;;60.33;25.40;;;;;;;-2.74;100.00;103176.69;4994484;28;20383;-81
2023/01/21 09:55:02;;;;;;;55.38;23.45;;;;;;;-2.70;100.00;103178.66;4994495;28;20034;-82
2023/01/21 09:57:53;;;;;;;51.72;21.50;;;;;;;-2.65;100.00;103187.56;4994874;28;20426;-83
2023/01/21 10:00:23;;;;;;;48.63;20.75;;;;;;;-2.57;100.00;103195.78;4994327;28;20546;-81
2023/01/21 10:03:07;;;;;;;59.88;25.17;;;;;;;-2.57;100.00;103197.41;4994125;28;20427;-81
2023/01/21 10:05:51;;;;;;;70.60;28.38;;;;;;;-2.69;100.00;103205.88;4994541;28;20034;-81
2023/01/21 10:08:33;;;;;;;67.63;27.45;;;;;;;-2.70;100.00;103208.31;4994400;28;20038;-81
2023/01/21 10:11:26;;;;;;;68.45;27.55;;;;;;;-2.74;100.00;103211.38;4994009;28;20026;-82
2023/01/21 10:14:32;;;;;;;68.57;27.17;;;;;;;-2.72;100.00;103209.84;4994142;28;20036;-81
2023/01/21 10:17:08;;;;;;;62.88;26.05;;;;;;;-2.65;100.00;103207.91;4993691;28;20467;-81
2023/01/21 10:19:45;;;;;;;65.90;28.20;;;;;;;-2.63;100.00;103213.09;4994149;28;20038;-82
2023/01/21 10:22:16;;;;;;;68.55;27.92;;;;;;;-2.61;100.00;103213.22;4993227;28;20391;-81
2023/01/21 10:24:47;;;;;;;68.03;26.05;;;;;;;-2.57;100.00;103207.59;4993772;28;20026;-81
2023/01/21 10:27:19;;;;;;;70.10;27.77;;;;;;;-2.57;100.00;103210.13;4995374;28;20052;-81
2023/01/21 10:29:48;;;;;;;68.75;26.98;;;;;;;-2.50;100.00;103207.31;4994324;28;20377;-81
2023/01/21 10:32:19;;;;;;;65.18;26.52;;;;;;;-2.45;100.00;103208.53;4992668;28;20050;-81
2023/01/21 10:34:51;;;;;;;60.53;23.33;;;;;;;-2.38;100.00;103205.69;4994028;28;20092;-81
2023/01/21 10:37:22;;;;;;;63.08;25.30;;;;;;;-2.33;100.00;103201.84;4993517;28;20019;-81
2023/01/21 10:40:16;;;;;;;61.15;24.73;;;;;;;-2.26;100.00;103195.56;4992911;28;20026;-81
2023/01/21 10:43:06;;;;;;;66.90;26.85;;;;;;;-2.26;100.00;103187.91;4993931;28;20089;-81
2023/01/21 10:45:49;;;;;;;67.10;26.60;;;;;;;-2.21;100.00;103196.81;4993314;28;20041;-81
2023/01/21 10:48:36;;;;;;;64.13;26.88;;;;;;;-2.17;100.00;103193.69;4993349;28;20467;-81
2023/01/21 10:51:22;;;;;;;65.25;26.13;;;;;;;-2.12;100.00;103195.72;4993533;28;20034;-82
2023/01/21 10:53:55;;;;;;;55.60;22.75;;;;;;;-1.99;100.00;103183.13;4994125;28;20026;-81
2023/01/21 10:56:39;;;;;;;52.20;21.20;;;;;;;-1.84;100.00;103185.00;4993282;28;20041;-80
2023/01/21 10:59:16;;;;;;;45.03;18.40;;;;;;;-1.72;100.00;103188.47;5010302;28;20034;-81
2023/01/21 11:01:46;;;;;;;42.58;18.60;;;;;;;-1.61;100.00;103176.53;5013122;28;20081;-80
2023/01/21 11:04:18;;;;;;;41.63;17.00;;;;;;;-1.46;100.00;103185.25;5013073;28;20090;-81
2023/01/21 11:06:56;;;;;;;40.70;16.38;;;;;;;-1.37;100.00;103184.16;5009744;23;20446;-81
2023/01/21 11:09:25;;;;;;;42.67;17.98;;;;;;;-1.28;100.00;103183.13;4993222;28;20026;-82
2023/01/21 11:11:50;;;;;;;38.78;15.70;;;;;;;-1.16;100.00;103175.50;4993250;28;20459;-82
2023/01/21 11:14:15;;;;;;;42.85;18.33;;;;;;;-1.11;100.00;103176.69;4992305;28;20030;-82
2023/01/21 11:16:44;;;;;;;40.40;17.42;;;;;;;-1.02;100.00;103183.22;4993595;28;20044;-82